Manbij, Syria
Current Conditions -  °F | °C
As of 7:20 AM on Sunday 21 Dec 2014 (Local Time) from LTAJ Reporting Station
Clear Clear  
Wind Chill: 36°   Ceiling: Unl
Heat Index: 36°   Visibility: 6mi
Dew Point: 32°   Wind: 1mph
Humidity: 87%   Direction: 340°NNW
Pressure: 30.09"   Gusts: NA
Location:  36.54°N, 37.96°E
Report Text: LTAJ 210420Z 34001KT CAVOK 02/00 Q1019 NOSIG
Loading
Personal Weather Stations






























Interactive Weather Map New forecast layout! Learn more

10-Day Weather Forecast

Advertisements
Track Severe Weather on mobile